الصفحة الرئيسية
METAR-TAF:

METAR-TAF

مطار :

بروناي, بروناي

دائرة عرض: 04-56N, خط طول: 114-56E, ارتفاع: 22 متر

مراقبة الطقس الحالي

تاريخ ووقت الإصدار 34 دقيقة قبل الساعة 21:30UTC
ريح 3 عقدة من الجنوب الغربي
درجة الحرارة 26°درجة مئوية
الرطوبة 89%
ضغط 1010 hPa
الرؤية 10 كم أو أكثر
غيوم قليلة على ارتفاع 1500 قدم
غيوم متفرقة على ارتفاع 14000 قدم
غيوم مفككة على ارتفاع 28000 قدم

METAR: WBSB 022130Z 22003KT 9999 FEW015 SCT140 BKN280 26/24 Q1010 NOSIG

زمن: 06:04 (22:04 UTC)

توقعات

تاريخ ووقت الإصدار 5ساعات و 4 دقيقة قبل الساعة 17:00UTC
التوقعات صالحة من02 الساعة 18 UTC إلى 04 الساعة 00 UTC
ريح 3 عقدة من الجنوب
الرؤية 10 كم أو أكثر
غيوم قليلة على ارتفاع 1400 قدم
أصبح
من 03 الساعة 03 UTC إلى 03 الساعة 05 UTC
ريح 8 عقدة من الشمال/الشمال الغربي
غيوم قليلة على ارتفاع 1600 قدم
غيوم قليلة على ارتفاع 1700 قدم, مزنة ركامية.

TAF: WBSB 021700Z 0218/0400 17003KT 9999 FEW014 BECMG 0303/0305 33008KT FEW016 FEW017CB

أرصاد الطقس والتوقعات من أكثر من 4000 مطار (تقارير الطقس للمطار METAR والتنبؤ بالطقس بالمطارTAF).

المحطات المتاحة هي النقط الصفراء والحمراء على الخريطة.

حرك المؤشر فوق النقطة لمعرفة اسم المحطة.

ثم انقر لمعرفة أرصاد وتوقعات الطقس.

لتغيير الخارطة: اضغط على الأزرار الخضراء مع رمز الصليب الأسود للتكبير. على الزر الأخضر مع شرطة للتصغير، أو على الأسهم الخضراء للخرائط المجاورة.


METAR-TAF: